sensor_id;sensor_type;location;lat;lon;timestamp;temperature;humidity
41953;DHT22;63613;28.200;112.870;2023-04-08T00:00:00;17.90;68.20
41953;DHT22;63613;28.200;112.870;2023-04-08T00:02:27;18.10;80.60
41953;DHT22;63613;28.200;112.870;2023-04-08T00:04:54;18.10;82.30
41953;DHT22;63613;28.200;112.870;2023-04-08T00:07:21;18.10;82.30
41953;DHT22;63613;28.200;112.870;2023-04-08T00:09:48;18.10;81.90
41953;DHT22;63613;28.200;112.870;2023-04-08T00:12:15;18.20;81.60
41953;DHT22;63613;28.200;112.870;2023-04-08T00:14:41;18.30;81.60
41953;DHT22;63613;28.200;112.870;2023-04-08T00:17:08;18.30;81.40
41953;DHT22;63613;28.200;112.870;2023-04-08T00:19:35;18.30;81.10
41953;DHT22;63613;28.200;112.870;2023-04-08T00:22:02;18.40;81.20
41953;DHT22;63613;28.200;112.870;2023-04-08T00:24:29;18.30;81.10
41953;DHT22;63613;28.200;112.870;2023-04-08T00:26:57;18.40;81.10
41953;DHT22;63613;28.200;112.870;2023-04-08T00:29:24;18.40;81.40
41953;DHT22;63613;28.200;112.870;2023-04-08T00:31:50;18.40;81.10
41953;DHT22;63613;28.200;112.870;2023-04-08T00:34:17;18.50;80.60
41953;DHT22;63613;28.200;112.870;2023-04-08T00:36:44;18.50;80.60
41953;DHT22;63613;28.200;112.870;2023-04-08T00:39:13;18.60;80.50
41953;DHT22;63613;28.200;112.870;2023-04-08T00:41:40;18.60;80.30
41953;DHT22;63613;28.200;112.870;2023-04-08T00:44:07;18.60;80.20
41953;DHT22;63613;28.200;112.870;2023-04-08T00:46:37;18.60;80.20
41953;DHT22;63613;28.200;112.870;2023-04-08T00:49:05;18.60;80.00
41953;DHT22;63613;28.200;112.870;2023-04-08T00:51:33;18.70;79.80
41953;DHT22;63613;28.200;112.870;2023-04-08T00:54:03;18.70;79.60
41953;DHT22;63613;28.200;112.870;2023-04-08T00:56:31;18.80;79.40
41953;DHT22;63613;28.200;112.870;2023-04-08T00:59:00;18.70;79.30
41953;DHT22;63613;28.200;112.870;2023-04-08T01:04:56;18.80;79.00
41953;DHT22;63613;28.200;112.870;2023-04-08T01:07:33;18.90;78.70
41953;DHT22;63613;28.200;112.870;2023-04-08T01:10:24;18.90;78.50
41953;DHT22;63613;28.200;112.870;2023-04-08T01:12:56;18.90;78.20
41953;DHT22;63613;28.200;112.870;2023-04-08T01:15:27;18.90;78.00
41953;DHT22;63613;28.200;112.870;2023-04-08T01:17:55;19.00;77.90
41953;DHT22;63613;28.200;112.870;2023-04-08T01:20:26;18.90;77.60
41953;DHT22;63613;28.200;112.870;2023-04-08T01:25:38;19.00;77.40
41953;DHT22;63613;28.200;112.870;2023-04-08T01:28:13;19.00;77.40
41953;DHT22;63613;28.200;112.870;2023-04-08T01:30:41;19.00;77.30
41953;DHT22;63613;28.200;112.870;2023-04-08T01:33:14;19.00;77.30
41953;DHT22;63613;28.200;112.870;2023-04-08T01:35:41;19.00;76.90
41953;DHT22;63613;28.200;112.870;2023-04-08T01:38:14;19.00;76.70
41953;DHT22;63613;28.200;112.870;2023-04-08T01:40:42;19.00;76.70
41953;DHT22;63613;28.200;112.870;2023-04-08T01:43:15;19.00;76.80
41953;DHT22;63613;28.200;112.870;2023-04-08T01:45:47;19.10;76.60
41953;DHT22;63613;28.200;112.870;2023-04-08T01:48:17;19.10;76.50
41953;DHT22;63613;28.200;112.870;2023-04-08T01:50:44;19.10;76.30
41953;DHT22;63613;28.200;112.870;2023-04-08T01:53:11;19.20;76.10
41953;DHT22;63613;28.200;112.870;2023-04-08T01:56:05;19.10;76.00
41953;DHT22;63613;28.200;112.870;2023-04-08T01:58:51;19.20;76.10
41953;DHT22;63613;28.200;112.870;2023-04-08T02:01:22;19.20;76.00
41953;DHT22;63613;28.200;112.870;2023-04-08T02:03:52;19.20;75.80
41953;DHT22;63613;28.200;112.870;2023-04-08T02:06:23;19.20;75.60
41953;DHT22;63613;28.200;112.870;2023-04-08T02:08:50;19.30;75.50
41953;DHT22;63613;28.200;112.870;2023-04-08T02:11:17;19.30;75.50
41953;DHT22;63613;28.200;112.870;2023-04-08T02:13:44;19.30;75.70
41953;DHT22;63613;28.200;112.870;2023-04-08T02:16:43;19.30;75.70
41953;DHT22;63613;28.200;112.870;2023-04-08T02:19:23;19.30;75.50
41953;DHT22;63613;28.200;112.870;2023-04-08T02:22:04;19.30;75.50
41953;DHT22;63613;28.200;112.870;2023-04-08T02:24:35;19.30;75.60
41953;DHT22;63613;28.200;112.870;2023-04-08T02:27:03;19.30;75.70
41953;DHT22;63613;28.200;112.870;2023-04-08T02:29:31;19.40;75.60
41953;DHT22;63613;28.200;112.870;2023-04-08T02:32:01;19.40;75.50
41953;DHT22;63613;28.200;112.870;2023-04-08T02:34:31;19.40;75.40
41953;DHT22;63613;28.200;112.870;2023-04-08T02:36:58;19.50;75.20
41953;DHT22;63613;28.200;112.870;2023-04-08T02:39:36;19.50;74.90
41953;DHT22;63613;28.200;112.870;2023-04-08T02:42:06;19.50;74.80
41953;DHT22;63613;28.200;112.870;2023-04-08T02:44:34;19.60;74.50
41953;DHT22;63613;28.200;112.870;2023-04-08T02:47:01;19.60;73.80
41953;DHT22;63613;28.200;112.870;2023-04-08T02:49:28;19.60;74.10
41953;DHT22;63613;28.200;112.870;2023-04-08T02:51:54;19.60;74.30
41953;DHT22;63613;28.200;112.870;2023-04-08T02:54:21;19.70;74.40
41953;DHT22;63613;28.200;112.870;2023-04-08T02:56:48;19.60;74.40
41953;DHT22;63613;28.200;112.870;2023-04-08T02:59:16;19.70;74.40
41953;DHT22;63613;28.200;112.870;2023-04-08T03:01:43;19.70;74.30
41953;DHT22;63613;28.200;112.870;2023-04-08T03:04:09;19.70;74.10
41953;DHT22;63613;28.200;112.870;2023-04-08T03:06:38;19.70;74.20
41953;DHT22;63613;28.200;112.870;2023-04-08T03:09:05;19.80;74.10
41953;DHT22;63613;28.200;112.870;2023-04-08T03:11:32;19.70;74.00
41953;DHT22;63613;28.200;112.870;2023-04-08T03:14:19;19.80;74.00
41953;DHT22;63613;28.200;112.870;2023-04-08T03:16:47;19.80;73.90
41953;DHT22;63613;28.200;112.870;2023-04-08T03:19:14;19.80;73.70
41953;DHT22;63613;28.200;112.870;2023-04-08T03:21:41;19.80;73.50
41953;DHT22;63613;28.200;112.870;2023-04-08T03:24:08;19.80;73.30
41953;DHT22;63613;28.200;112.870;2023-04-08T03:26:35;19.90;73.40
41953;DHT22;63613;28.200;112.870;2023-04-08T03:29:05;19.90;73.40
41953;DHT22;63613;28.200;112.870;2023-04-08T03:31:32;19.90;73.30
41953;DHT22;63613;28.200;112.870;2023-04-08T03:34:00;19.90;73.30
41953;DHT22;63613;28.200;112.870;2023-04-08T03:36:27;20.00;73.10
41953;DHT22;63613;28.200;112.870;2023-04-08T03:38:54;20.00;73.10
41953;DHT22;63613;28.200;112.870;2023-04-08T03:41:20;20.00;73.00
41953;DHT22;63613;28.200;112.870;2023-04-08T03:43:47;20.00;72.70
41953;DHT22;63613;28.200;112.870;2023-04-08T03:46:14;20.00;72.70
41953;DHT22;63613;28.200;112.870;2023-04-08T03:48:41;20.00;72.60
41953;DHT22;63613;28.200;112.870;2023-04-08T03:51:10;20.10;72.30
41953;DHT22;63613;28.200;112.870;2023-04-08T03:53:37;20.10;71.80
41953;DHT22;63613;28.200;112.870;2023-04-08T03:56:04;20.10;71.70
41953;DHT22;63613;28.200;112.870;2023-04-08T03:58:31;20.10;72.20
41953;DHT22;63613;28.200;112.870;2023-04-08T04:00:58;20.20;72.30
41953;DHT22;63613;28.200;112.870;2023-04-08T04:03:25;20.20;72.10
41953;DHT22;63613;28.200;112.870;2023-04-08T04:05:52;20.20;72.10
41953;DHT22;63613;28.200;112.870;2023-04-08T04:08:19;20.30;72.20
41953;DHT22;63613;28.200;112.870;2023-04-08T04:10:46;20.30;72.10
41953;DHT22;63613;28.200;112.870;2023-04-08T04:13:13;20.30;71.90
41953;DHT22;63613;28.200;112.870;2023-04-08T04:15:40;20.30;71.80
41953;DHT22;63613;28.200;112.870;2023-04-08T04:18:07;20.40;71.80
41953;DHT22;63613;28.200;112.870;2023-04-08T04:20:34;20.30;71.70
41953;DHT22;63613;28.200;112.870;2023-04-08T04:23:01;20.40;71.50
41953;DHT22;63613;28.200;112.870;2023-04-08T04:25:28;20.40;71.40
41953;DHT22;63613;28.200;112.870;2023-04-08T04:27:56;20.40;71.10
41953;DHT22;63613;28.200;112.870;2023-04-08T04:30:24;20.40;69.90
41953;DHT22;63613;28.200;112.870;2023-04-08T04:32:51;20.50;69.50
41953;DHT22;63613;28.200;112.870;2023-04-08T04:35:18;20.50;69.40
41953;DHT22;63613;28.200;112.870;2023-04-08T04:37:45;20.50;68.80
41953;DHT22;63613;28.200;112.870;2023-04-08T04:40:12;20.50;68.10
41953;DHT22;63613;28.200;112.870;2023-04-08T04:42:59;20.60;68.30
41953;DHT22;63613;28.200;112.870;2023-04-08T04:45:27;20.60;69.40
41953;DHT22;63613;28.200;112.870;2023-04-08T04:47:54;20.60;69.10
41953;DHT22;63613;28.200;112.870;2023-04-08T04:50:21;20.70;69.40
41953;DHT22;63613;28.200;112.870;2023-04-08T04:52:51;20.70;69.50
41953;DHT22;63613;28.200;112.870;2023-04-08T04:55:17;20.70;69.40
41953;DHT22;63613;28.200;112.870;2023-04-08T04:57:44;20.70;68.90
41953;DHT22;63613;28.200;112.870;2023-04-08T05:00:11;20.70;69.10
41953;DHT22;63613;28.200;112.870;2023-04-08T05:02:38;20.80;68.90
41953;DHT22;63613;28.200;112.870;2023-04-08T05:05:06;20.80;68.70
41953;DHT22;63613;28.200;112.870;2023-04-08T05:07:37;20.80;69.00
41953;DHT22;63613;28.200;112.870;2023-04-08T05:10:05;20.80;69.20
41953;DHT22;63613;28.200;112.870;2023-04-08T05:12:32;20.80;69.10
41953;DHT22;63613;28.200;112.870;2023-04-08T05:14:59;20.80;69.10
41953;DHT22;63613;28.200;112.870;2023-04-08T05:17:26;20.90;68.90
41953;DHT22;63613;28.200;112.870;2023-04-08T05:19:53;20.90;69.00
41953;DHT22;63613;28.200;112.870;2023-04-08T05:22:19;20.90;68.80
41953;DHT22;63613;28.200;112.870;2023-04-08T05:24:47;20.90;68.70
41953;DHT22;63613;28.200;112.870;2023-04-08T05:27:16;20.90;68.60
41953;DHT22;63613;28.200;112.870;2023-04-08T05:29:43;20.90;68.60
41953;DHT22;63613;28.200;112.870;2023-04-08T05:32:10;21.00;68.60
41953;DHT22;63613;28.200;112.870;2023-04-08T05:34:38;21.00;68.50
41953;DHT22;63613;28.200;112.870;2023-04-08T05:37:05;21.00;68.30
41953;DHT22;63613;28.200;112.870;2023-04-08T05:39:32;21.00;68.20
41953;DHT22;63613;28.200;112.870;2023-04-08T05:41:58;21.00;68.20
41953;DHT22;63613;28.200;112.870;2023-04-08T05:44:25;21.10;67.90
41953;DHT22;63613;28.200;112.870;2023-04-08T05:46:53;21.10;68.00
41953;DHT22;63613;28.200;112.870;2023-04-08T05:49:21;21.10;67.30
41953;DHT22;63613;28.200;112.870;2023-04-08T05:51:47;21.10;67.60
41953;DHT22;63613;28.200;112.870;2023-04-08T05:54:14;21.10;67.80
41953;DHT22;63613;28.200;112.870;2023-04-08T05:56:41;21.20;67.60
41953;DHT22;63613;28.200;112.870;2023-04-08T05:59:14;21.20;67.10
41953;DHT22;63613;28.200;112.870;2023-04-08T06:01:42;21.20;67.40
41953;DHT22;63613;28.200;112.870;2023-04-08T06:04:29;21.30;67.50
41953;DHT22;63613;28.200;112.870;2023-04-08T06:06:56;21.30;67.30
41953;DHT22;63613;28.200;112.870;2023-04-08T06:09:25;21.30;67.30
41953;DHT22;63613;28.200;112.870;2023-04-08T06:11:52;21.30;67.20
41953;DHT22;63613;28.200;112.870;2023-04-08T06:14:18;21.30;67.20
41953;DHT22;63613;28.200;112.870;2023-04-08T06:16:50;21.30;67.00
41953;DHT22;63613;28.200;112.870;2023-04-08T06:19:36;21.30;66.90
41953;DHT22;63613;28.200;112.870;2023-04-08T06:22:03;21.30;66.90
41953;DHT22;63613;28.200;112.870;2023-04-08T06:24:30;21.40;66.80
41953;DHT22;63613;28.200;112.870;2023-04-08T06:26:57;21.30;66.30
41953;DHT22;63613;28.200;112.870;2023-04-08T06:29:24;21.30;66.30
41953;DHT22;63613;28.200;112.870;2023-04-08T06:31:52;21.40;66.40
41953;DHT22;63613;28.200;112.870;2023-04-08T06:34:39;21.40;66.30
41953;DHT22;63613;28.200;112.870;2023-04-08T06:37:09;21.40;66.70
41953;DHT22;63613;28.200;112.870;2023-04-08T06:39:36;21.50;66.70
41953;DHT22;63613;28.200;112.870;2023-04-08T06:42:04;21.40;65.20
41953;DHT22;63613;28.200;112.870;2023-04-08T06:44:34;21.50;65.50
41953;DHT22;63613;28.200;112.870;2023-04-08T06:47:03;21.50;65.20
41953;DHT22;63613;28.200;112.870;2023-04-08T06:49:30;21.50;65.30
41953;DHT22;63613;28.200;112.870;2023-04-08T06:51:57;21.50;65.80
41953;DHT22;63613;28.200;112.870;2023-04-08T06:54:24;21.50;66.00
41953;DHT22;63613;28.200;112.870;2023-04-08T06:56:50;21.50;65.90
41953;DHT22;63613;28.200;112.870;2023-04-08T06:59:17;21.50;66.10
41953;DHT22;63613;28.200;112.870;2023-04-08T07:01:44;21.50;66.20
41953;DHT22;63613;28.200;112.870;2023-04-08T07:04:11;21.50;66.20
41953;DHT22;63613;28.200;112.870;2023-04-08T07:06:40;21.50;66.10
41953;DHT22;63613;28.200;112.870;2023-04-08T07:09:07;21.50;66.00
41953;DHT22;63613;28.200;112.870;2023-04-08T07:11:35;21.50;66.00
41953;DHT22;63613;28.200;112.870;2023-04-08T07:14:02;21.50;66.10
41953;DHT22;63613;28.200;112.870;2023-04-08T07:16:49;21.60;66.00
41953;DHT22;63613;28.200;112.870;2023-04-08T07:19:16;21.60;66.10
41953;DHT22;63613;28.200;112.870;2023-04-08T07:21:43;21.50;66.10
41953;DHT22;63613;28.200;112.870;2023-04-08T07:24:29;21.60;65.80
41953;DHT22;63613;28.200;112.870;2023-04-08T07:26:58;21.50;65.90
41953;DHT22;63613;28.200;112.870;2023-04-08T07:29:25;21.50;65.90
41953;DHT22;63613;28.200;112.870;2023-04-08T07:31:54;21.60;65.90
41953;DHT22;63613;28.200;112.870;2023-04-08T07:34:21;21.50;65.70
41953;DHT22;63613;28.200;112.870;2023-04-08T07:36:48;21.60;65.60
41953;DHT22;63613;28.200;112.870;2023-04-08T07:39:15;21.50;65.60
41953;DHT22;63613;28.200;112.870;2023-04-08T07:41:41;21.50;65.50
41953;DHT22;63613;28.200;112.870;2023-04-08T07:44:08;21.50;65.50
41953;DHT22;63613;28.200;112.870;2023-04-08T07:46:38;21.50;65.30
41953;DHT22;63613;28.200;112.870;2023-04-08T07:49:05;21.50;65.30
41953;DHT22;63613;28.200;112.870;2023-04-08T07:51:32;21.50;65.30
41953;DHT22;63613;28.200;112.870;2023-04-08T07:53:59;21.50;65.10
41953;DHT22;63613;28.200;112.870;2023-04-08T07:56:27;21.50;65.20
41953;DHT22;63613;28.200;112.870;2023-04-08T07:58:56;21.50;65.30
41953;DHT22;63613;28.200;112.870;2023-04-08T08:01:22;21.50;65.30
41953;DHT22;63613;28.200;112.870;2023-04-08T08:04:10;21.50;65.20
41953;DHT22;63613;28.200;112.870;2023-04-08T08:06:36;21.50;65.20
41953;DHT22;63613;28.200;112.870;2023-04-08T08:09:04;21.40;65.10
41953;DHT22;63613;28.200;112.870;2023-04-08T08:11:30;21.50;65.10
41953;DHT22;63613;28.200;112.870;2023-04-08T08:14:00;21.50;65.10
41953;DHT22;63613;28.200;112.870;2023-04-08T08:16:30;21.40;65.10
41953;DHT22;63613;28.200;112.870;2023-04-08T08:18:59;21.40;65.10
41953;DHT22;63613;28.200;112.870;2023-04-08T08:21:26;21.30;65.00
41953;DHT22;63613;28.200;112.870;2023-04-08T08:23:53;21.40;65.00
41953;DHT22;63613;28.200;112.870;2023-04-08T08:26:20;21.30;65.00
41953;DHT22;63613;28.200;112.870;2023-04-08T08:28:48;21.30;65.00
41953;DHT22;63613;28.200;112.870;2023-04-08T08:31:15;21.30;65.00
41953;DHT22;63613;28.200;112.870;2023-04-08T08:33:43;21.30;65.10
41953;DHT22;63613;28.200;112.870;2023-04-08T08:36:11;21.30;65.10
41953;DHT22;63613;28.200;112.870;2023-04-08T08:38:38;21.30;65.10
41953;DHT22;63613;28.200;112.870;2023-04-08T08:41:05;21.30;65.10
41953;DHT22;63613;28.200;112.870;2023-04-08T08:43:53;21.30;65.20
41953;DHT22;63613;28.200;112.870;2023-04-08T08:46:23;21.30;65.30
41953;DHT22;63613;28.200;112.870;2023-04-08T08:48:50;21.20;65.30
41953;DHT22;63613;28.200;112.870;2023-04-08T08:51:17;21.20;65.30
41953;DHT22;63613;28.200;112.870;2023-04-08T08:53:44;21.20;65.30
41953;DHT22;63613;28.200;112.870;2023-04-08T08:56:12;21.20;65.20
41953;DHT22;63613;28.200;112.870;2023-04-08T08:58:38;21.20;65.30
41953;DHT22;63613;28.200;112.870;2023-04-08T09:01:36;21.20;65.30
41953;DHT22;63613;28.200;112.870;2023-04-08T09:04:21;21.10;65.30
41953;DHT22;63613;28.200;112.870;2023-04-08T09:06:48;21.10;65.40
41953;DHT22;63613;28.200;112.870;2023-04-08T09:09:16;21.00;65.40
41953;DHT22;63613;28.200;112.870;2023-04-08T09:11:45;21.10;65.30
41953;DHT22;63613;28.200;112.870;2023-04-08T09:14:18;21.00;65.40
41953;DHT22;63613;28.200;112.870;2023-04-08T09:16:45;21.00;65.40
41953;DHT22;63613;28.200;112.870;2023-04-08T09:19:15;21.00;65.40
41953;DHT22;63613;28.200;112.870;2023-04-08T09:21:42;21.00;65.50
41953;DHT22;63613;28.200;112.870;2023-04-08T09:24:30;21.00;65.60
41953;DHT22;63613;28.200;112.870;2023-04-08T09:26:57;20.90;65.60
41953;DHT22;63613;28.200;112.870;2023-04-08T09:29:24;20.90;65.60
41953;DHT22;63613;28.200;112.870;2023-04-08T09:31:57;20.90;65.70
41953;DHT22;63613;28.200;112.870;2023-04-08T09:34:28;20.90;65.70
41953;DHT22;63613;28.200;112.870;2023-04-08T09:36:56;20.90;65.70
41953;DHT22;63613;28.200;112.870;2023-04-08T09:39:23;20.80;65.80
41953;DHT22;63613;28.200;112.870;2023-04-08T09:42:11;20.80;65.90
41953;DHT22;63613;28.200;112.870;2023-04-08T09:44:39;20.80;65.90
41953;DHT22;63613;28.200;112.870;2023-04-08T09:47:18;20.80;66.00
41953;DHT22;63613;28.200;112.870;2023-04-08T09:49:50;20.80;66.10
41953;DHT22;63613;28.200;112.870;2023-04-08T09:55:08;20.80;66.20
41953;DHT22;63613;28.200;112.870;2023-04-08T10:00:55;20.70;66.30
41953;DHT22;63613;28.200;112.870;2023-04-08T10:03:29;20.70;66.40
41953;DHT22;63613;28.200;112.870;2023-04-08T10:06:21;20.70;66.50
41953;DHT22;63613;28.200;112.870;2023-04-08T10:08:54;20.70;66.60
41953;DHT22;63613;28.200;112.870;2023-04-08T10:11:21;20.70;66.60
41953;DHT22;63613;28.200;112.870;2023-04-08T10:13:48;20.60;66.70
41953;DHT22;63613;28.200;112.870;2023-04-08T10:16:25;20.60;66.70
41953;DHT22;63613;28.200;112.870;2023-04-08T10:18:55;20.60;66.70
41953;DHT22;63613;28.200;112.870;2023-04-08T10:24:07;20.60;67.00
41953;DHT22;63613;28.200;112.870;2023-04-08T10:26:44;20.50;67.00
41953;DHT22;63613;28.200;112.870;2023-04-08T10:31:45;20.50;67.10
41953;DHT22;63613;28.200;112.870;2023-04-08T10:34:24;20.50;67.10
41953;DHT22;63613;28.200;112.870;2023-04-08T10:36:52;20.40;67.20
41953;DHT22;63613;28.200;112.870;2023-04-08T10:39:20;20.40;67.20
41953;DHT22;63613;28.200;112.870;2023-04-08T10:41:50;20.40;67.20
41953;DHT22;63613;28.200;112.870;2023-04-08T10:44:25;20.40;67.30
41953;DHT22;63613;28.200;112.870;2023-04-08T10:46:53;20.40;67.30
41953;DHT22;63613;28.200;112.870;2023-04-08T10:49:20;20.40;67.40
41953;DHT22;63613;28.200;112.870;2023-04-08T10:51:47;20.40;67.50
41953;DHT22;63613;28.200;112.870;2023-04-08T10:54:16;20.30;67.50
41953;DHT22;63613;28.200;112.870;2023-04-08T10:56:51;20.30;67.60
41953;DHT22;63613;28.200;112.870;2023-04-08T10:59:30;20.30;67.60
41953;DHT22;63613;28.200;112.870;2023-04-08T11:01:58;20.30;67.70
41953;DHT22;63613;28.200;112.870;2023-04-08T11:04:26;20.30;67.70
41953;DHT22;63613;28.200;112.870;2023-04-08T11:06:53;20.30;67.80
41953;DHT22;63613;28.200;112.870;2023-04-08T11:09:20;20.30;67.80
41953;DHT22;63613;28.200;112.870;2023-04-08T11:11:47;20.30;67.90
41953;DHT22;63613;28.200;112.870;2023-04-08T11:14:17;20.30;67.90
41953;DHT22;63613;28.200;112.870;2023-04-08T11:16:47;20.30;68.00
41953;DHT22;63613;28.200;112.870;2023-04-08T11:19:34;20.30;67.90
41953;DHT22;63613;28.200;112.870;2023-04-08T11:22:01;20.30;68.00
41953;DHT22;63613;28.200;112.870;2023-04-08T11:24:35;20.30;68.10
41953;DHT22;63613;28.200;112.870;2023-04-08T11:27:06;20.30;68.20
41953;DHT22;63613;28.200;112.870;2023-04-08T11:29:33;20.20;68.30
41953;DHT22;63613;28.200;112.870;2023-04-08T11:32:05;20.30;68.30
41953;DHT22;63613;28.200;112.870;2023-04-08T11:34:38;20.20;68.40
41953;DHT22;63613;28.200;112.870;2023-04-08T11:37:05;20.20;68.40
41953;DHT22;63613;28.200;112.870;2023-04-08T11:39:32;20.20;68.40
41953;DHT22;63613;28.200;112.870;2023-04-08T11:41:59;20.20;68.40
41953;DHT22;63613;28.200;112.870;2023-04-08T11:44:32;20.20;68.50
41953;DHT22;63613;28.200;112.870;2023-04-08T11:47:00;20.20;68.50
41953;DHT22;63613;28.200;112.870;2023-04-08T11:49:28;20.20;68.60
41953;DHT22;63613;28.200;112.870;2023-04-08T11:52:08;20.20;68.60
41953;DHT22;63613;28.200;112.870;2023-04-08T11:54:41;20.20;68.70
41953;DHT22;63613;28.200;112.870;2023-04-08T11:57:08;20.20;68.70
41953;DHT22;63613;28.200;112.870;2023-04-08T11:59:36;20.20;68.70
41953;DHT22;63613;28.200;112.870;2023-04-08T12:02:05;20.20;68.70
41953;DHT22;63613;28.200;112.870;2023-04-08T12:04:32;20.10;68.80
41953;DHT22;63613;28.200;112.870;2023-04-08T12:07:23;20.20;68.80
41953;DHT22;63613;28.200;112.870;2023-04-08T12:09:51;20.10;68.80
41953;DHT22;63613;28.200;112.870;2023-04-08T12:12:19;20.20;68.90
41953;DHT22;63613;28.200;112.870;2023-04-08T12:14:49;20.10;68.90
41953;DHT22;63613;28.200;112.870;2023-04-08T12:17:16;20.10;69.00
41953;DHT22;63613;28.200;112.870;2023-04-08T12:19:43;20.10;69.00
41953;DHT22;63613;28.200;112.870;2023-04-08T12:22:10;20.10;68.90
41953;DHT22;63613;28.200;112.870;2023-04-08T12:24:38;20.10;69.00
41953;DHT22;63613;28.200;112.870;2023-04-08T12:27:05;20.10;69.00
41953;DHT22;63613;28.200;112.870;2023-04-08T12:29:32;20.10;69.00
41953;DHT22;63613;28.200;112.870;2023-04-08T12:31:59;20.10;69.10
41953;DHT22;63613;28.200;112.870;2023-04-08T12:34:25;20.10;69.10
41953;DHT22;63613;28.200;112.870;2023-04-08T12:36:52;20.10;69.20
41953;DHT22;63613;28.200;112.870;2023-04-08T12:39:20;20.10;69.20
41953;DHT22;63613;28.200;112.870;2023-04-08T12:41:47;20.10;69.20
41953;DHT22;63613;28.200;112.870;2023-04-08T12:44:14;20.10;69.30
41953;DHT22;63613;28.200;112.870;2023-04-08T12:46:41;20.10;69.30
41953;DHT22;63613;28.200;112.870;2023-04-08T12:49:08;20.10;69.40
41953;DHT22;63613;28.200;112.870;2023-04-08T12:51:35;20.10;69.40
41953;DHT22;63613;28.200;112.870;2023-04-08T12:54:02;20.00;69.30
41953;DHT22;63613;28.200;112.870;2023-04-08T12:56:30;20.10;69.40
41953;DHT22;63613;28.200;112.870;2023-04-08T12:58:58;20.10;69.40
41953;DHT22;63613;28.200;112.870;2023-04-08T13:01:30;20.00;69.40
41953;DHT22;63613;28.200;112.870;2023-04-08T13:03:56;20.00;69.40
41953;DHT22;63613;28.200;112.870;2023-04-08T13:06:25;20.00;69.50
41953;DHT22;63613;28.200;112.870;2023-04-08T13:08:53;20.00;69.50
41953;DHT22;63613;28.200;112.870;2023-04-08T13:11:20;20.00;69.50
41953;DHT22;63613;28.200;112.870;2023-04-08T13:13:47;20.00;69.40
41953;DHT22;63613;28.200;112.870;2023-04-08T13:16:16;20.00;69.40
41953;DHT22;63613;28.200;112.870;2023-04-08T13:18:43;20.00;69.50
41953;DHT22;63613;28.200;112.870;2023-04-08T13:21:10;20.00;69.70
41953;DHT22;63613;28.200;112.870;2023-04-08T13:23:59;20.00;69.70
41953;DHT22;63613;28.200;112.870;2023-04-08T13:26:29;19.90;69.70
41953;DHT22;63613;28.200;112.870;2023-04-08T13:28:56;20.00;69.80
41953;DHT22;63613;28.200;112.870;2023-04-08T13:31:23;20.00;69.80
41953;DHT22;63613;28.200;112.870;2023-04-08T13:34:10;20.00;69.80
41953;DHT22;63613;28.200;112.870;2023-04-08T13:36:39;20.00;69.90
41953;DHT22;63613;28.200;112.870;2023-04-08T13:39:06;19.90;70.00
41953;DHT22;63613;28.200;112.870;2023-04-08T13:41:33;19.90;70.00
41953;DHT22;63613;28.200;112.870;2023-04-08T13:44:03;20.00;70.00
41953;DHT22;63613;28.200;112.870;2023-04-08T13:46:30;19.90;70.00
41953;DHT22;63613;28.200;112.870;2023-04-08T13:48:57;19.90;70.00
41953;DHT22;63613;28.200;112.870;2023-04-08T13:51:25;19.90;70.00
41953;DHT22;63613;28.200;112.870;2023-04-08T13:53:52;19.90;70.00
41953;DHT22;63613;28.200;112.870;2023-04-08T13:56:28;19.90;70.00
41953;DHT22;63613;28.200;112.870;2023-04-08T13:58:55;19.90;69.90
41953;DHT22;63613;28.200;112.870;2023-04-08T14:01:23;19.90;69.90
41953;DHT22;63613;28.200;112.870;2023-04-08T14:03:53;19.90;69.90
41953;DHT22;63613;28.200;112.870;2023-04-08T14:06:20;19.90;69.90
41953;DHT22;63613;28.200;112.870;2023-04-08T14:08:47;19.90;69.90
41953;DHT22;63613;28.200;112.870;2023-04-08T14:11:14;19.90;70.00
41953;DHT22;63613;28.200;112.870;2023-04-08T14:13:42;19.90;70.00
41953;DHT22;63613;28.200;112.870;2023-04-08T14:16:09;19.90;70.10
41953;DHT22;63613;28.200;112.870;2023-04-08T14:18:36;19.90;70.00
41953;DHT22;63613;28.200;112.870;2023-04-08T14:21:03;19.90;70.00
41953;DHT22;63613;28.200;112.870;2023-04-08T14:23:32;19.90;70.00
41953;DHT22;63613;28.200;112.870;2023-04-08T14:25:59;19.90;69.90
41953;DHT22;63613;28.200;112.870;2023-04-08T14:28:26;19.90;69.70
41953;DHT22;63613;28.200;112.870;2023-04-08T14:30:53;19.90;69.60
41953;DHT22;63613;28.200;112.870;2023-04-08T14:33:21;19.90;69.70
41953;DHT22;63613;28.200;112.870;2023-04-08T14:35:48;19.90;69.80
41953;DHT22;63613;28.200;112.870;2023-04-08T14:38:14;19.90;69.80
41953;DHT22;63613;28.200;112.870;2023-04-08T14:40:43;19.90;69.80
41953;DHT22;63613;28.200;112.870;2023-04-08T14:43:10;19.90;69.90
41953;DHT22;63613;28.200;112.870;2023-04-08T14:45:38;19.90;69.90
41953;DHT22;63613;28.200;112.870;2023-04-08T14:48:07;19.90;69.90
41953;DHT22;63613;28.200;112.870;2023-04-08T14:50:34;19.90;69.70
41953;DHT22;63613;28.200;112.870;2023-04-08T14:53:01;19.90;69.60
41953;DHT22;63613;28.200;112.870;2023-04-08T14:55:28;19.90;69.60
41953;DHT22;63613;28.200;112.870;2023-04-08T14:57:59;19.90;69.70
41953;DHT22;63613;28.200;112.870;2023-04-08T15:00:27;19.90;69.70
41953;DHT22;63613;28.200;112.870;2023-04-08T15:02:54;19.90;69.70
41953;DHT22;63613;28.200;112.870;2023-04-08T15:05:22;19.90;69.70
41953;DHT22;63613;28.200;112.870;2023-04-08T15:07:49;19.90;69.70
41953;DHT22;63613;28.200;112.870;2023-04-08T15:10:16;19.90;69.60
41953;DHT22;63613;28.200;112.870;2023-04-08T15:12:43;19.90;69.70
41953;DHT22;63613;28.200;112.870;2023-04-08T15:15:10;19.80;69.70
41953;DHT22;63613;28.200;112.870;2023-04-08T15:17:39;19.90;69.70
41953;DHT22;63613;28.200;112.870;2023-04-08T15:20:06;19.90;69.70
41953;DHT22;63613;28.200;112.870;2023-04-08T15:22:36;19.90;69.80
41953;DHT22;63613;28.200;112.870;2023-04-08T15:25:07;19.90;69.70
41953;DHT22;63613;28.200;112.870;2023-04-08T15:27:38;19.90;69.70
41953;DHT22;63613;28.200;112.870;2023-04-08T15:30:07;19.90;69.80
41953;DHT22;63613;28.200;112.870;2023-04-08T15:32:34;19.90;69.80